Time;durP1;ratioP1;P1;durP2;ratioP2;P2;SDS_P1;SDS_P2;PMS_P1;PMS_P2;Temp;Humidity;BMP_temperature;BMP_pressure;BME280_temperature;BME280_humidity;BME280_pressure;Samples;Min_cycle;Max_cycle;Signal;HPM_P1;HPM_P2
2021/01/25 00:00:08;;;;;;;17.97;11.77;;;;;;;;;;702051;200;919691;-68
2021/01/25 00:02:34;;;;;;;19.80;12.97;;;;;;;;;;694440;197;1406223;-68
2021/01/25 00:05:00;;;;;;;23.63;12.10;;;;;;;;;;695570;201;918781;-69
2021/01/25 00:07:25;;;;;;;21.73;12.20;;;;;;;;;;694286;197;918914;-68
2021/01/25 00:09:51;;;;;;;18.55;11.18;;;;;;;;;;702398;201;919589;-70
2021/01/25 00:12:18;;;;;;;18.80;11.23;;;;;;;;;;693102;197;876365;-69
2021/01/25 00:14:44;;;;;;;19.03;10.10;;;;;;;;;;696397;201;918481;-68
2021/01/25 00:17:09;;;;;;;15.30;10.27;;;;;;;;;;698894;200;878775;-68
2021/01/25 00:19:35;;;;;;;15.93;11.23;;;;;;;;;;695078;201;918542;-69
2021/01/25 00:22:01;;;;;;;15.27;9.60;;;;;;;;;;693384;201;939340;-69
2021/01/25 00:24:27;;;;;;;15.30;9.43;;;;;;;;;;700413;201;927306;-68
2021/01/25 00:26:53;;;;;;;18.10;8.68;;;;;;;;;;696054;201;917785;-68
2021/01/25 00:29:19;;;;;;;15.63;10.10;;;;;;;;;;693820;201;999576;-69
2021/01/25 00:31:45;;;;;;;13.83;7.93;;;;;;;;;;700305;201;920243;-68
2021/01/25 00:34:10;;;;;;;15.73;8.40;;;;;;;;;;692140;201;918144;-69
2021/01/25 00:36:36;;;;;;;13.27;7.70;;;;;;;;;;693862;201;960391;-68
2021/01/25 00:39:02;;;;;;;12.17;7.67;;;;;;;;;;692175;201;920498;-69
2021/01/25 00:41:28;;;;;;;11.18;7.57;;;;;;;;;;699253;201;919322;-69
2021/01/25 00:43:54;;;;;;;13.90;8.00;;;;;;;;;;674469;201;5635433;-69
2021/01/25 00:46:20;;;;;;;14.77;7.55;;;;;;;;;;694961;201;920085;-68
2021/01/25 00:48:45;;;;;;;13.47;8.10;;;;;;;;;;698591;198;911911;-69
2021/01/25 00:51:11;;;;;;;12.40;7.25;;;;;;;;;;696227;201;913844;-69
2021/01/25 00:53:37;;;;;;;13.67;8.40;;;;;;;;;;694153;198;1017539;-69
2021/01/25 00:56:03;;;;;;;14.63;9.73;;;;;;;;;;700862;198;919519;-69
2021/01/25 00:58:29;;;;;;;16.93;8.93;;;;;;;;;;694302;198;904460;-68
2021/01/25 01:00:55;;;;;;;11.77;8.27;;;;;;;;;;696338;200;918992;-69
2021/01/25 01:03:21;;;;;;;12.73;7.93;;;;;;;;;;696928;200;907857;-68
2021/01/25 01:05:47;;;;;;;14.20;8.03;;;;;;;;;;699359;198;912584;-69
2021/01/25 01:08:13;;;;;;;14.80;9.17;;;;;;;;;;695694;200;919356;-69
2021/01/25 01:10:39;;;;;;;14.00;8.50;;;;;;;;;;692527;197;934213;-68
2021/01/25 01:13:05;;;;;;;16.07;9.97;;;;;;;;;;701509;200;1019535;-69
2021/01/25 01:15:31;;;;;;;17.43;8.80;;;;;;;;;;694353;199;918505;-69
2021/01/25 01:17:57;;;;;;;16.63;9.83;;;;;;;;;;696179;201;920082;-69
2021/01/25 01:20:23;;;;;;;14.93;8.80;;;;;;;;;;697200;198;932742;-69
2021/01/25 01:22:48;;;;;;;13.93;9.27;;;;;;;;;;695812;201;918579;-69
2021/01/25 01:25:14;;;;;;;19.80;10.87;;;;;;;;;;692033;201;931905;-69
2021/01/25 01:27:40;;;;;;;17.67;10.57;;;;;;;;;;700497;201;919075;-68
2021/01/25 01:30:07;;;;;;;12.50;9.70;;;;;;;;;;688403;200;1897371;-69
2021/01/25 01:32:32;;;;;;;14.07;9.50;;;;;;;;;;695363;201;919369;-69
2021/01/25 01:34:58;;;;;;;18.13;11.17;;;;;;;;;;689530;201;1021389;-69
2021/01/25 01:37:24;;;;;;;16.70;9.20;;;;;;;;;;701083;201;919104;-69
2021/01/25 01:39:51;;;;;;;17.30;10.45;;;;;;;;;;693741;201;919290;-70
2021/01/25 01:42:17;;;;;;;14.90;9.67;;;;;;;;;;691986;201;1021432;-69
2021/01/25 01:44:43;;;;;;;18.43;10.47;;;;;;;;;;699936;201;920398;-69
2021/01/25 01:47:09;;;;;;;17.30;10.83;;;;;;;;;;692015;201;918999;-69
2021/01/25 01:49:34;;;;;;;19.37;11.30;;;;;;;;;;694762;201;918855;-69
2021/01/25 01:52:00;;;;;;;15.23;8.43;;;;;;;;;;695565;197;1599779;-69
2021/01/25 01:54:26;;;;;;;15.33;10.20;;;;;;;;;;695270;201;918073;-69
2021/01/25 01:56:52;;;;;;;17.10;11.03;;;;;;;;;;692633;197;919353;-69
2021/01/25 01:59:18;;;;;;;14.73;8.80;;;;;;;;;;694950;201;918955;-69
2021/01/25 02:01:44;;;;;;;17.43;10.07;;;;;;;;;;698329;197;918278;-69
2021/01/25 02:04:09;;;;;;;13.73;9.63;;;;;;;;;;693948;201;919029;-69
2021/01/25 02:06:35;;;;;;;12.73;8.30;;;;;;;;;;693802;198;919435;-69
2021/01/25 02:09:01;;;;;;;14.48;9.80;;;;;;;;;;702923;199;919020;-69
2021/01/25 02:11:27;;;;;;;14.47;8.97;;;;;;;;;;693592;200;930653;-69
2021/01/25 02:13:53;;;;;;;15.50;9.68;;;;;;;;;;696665;200;918912;-69
2021/01/25 02:16:20;;;;;;;13.73;9.30;;;;;;;;;;700046;200;918938;-68
2021/01/25 02:18:46;;;;;;;13.67;9.70;;;;;;;;;;697677;200;919139;-69
2021/01/25 02:21:12;;;;;;;16.43;9.50;;;;;;;;;;697613;200;919244;-69
2021/01/25 02:23:39;;;;;;;13.77;9.10;;;;;;;;;;693852;200;918805;-68
2021/01/25 02:26:05;;;;;;;14.73;9.50;;;;;;;;;;700043;200;919000;-69
2021/01/25 02:28:31;;;;;;;16.60;9.47;;;;;;;;;;692506;201;918976;-69
2021/01/25 02:30:57;;;;;;;17.98;10.43;;;;;;;;;;696882;200;919344;-68
2021/01/25 02:33:23;;;;;;;18.57;10.10;;;;;;;;;;697867;200;919097;-69
2021/01/25 02:35:49;;;;;;;18.80;10.10;;;;;;;;;;695127;201;919217;-69
2021/01/25 02:38:14;;;;;;;14.73;8.70;;;;;;;;;;692623;197;1130960;-69
2021/01/25 02:40:40;;;;;;;12.43;7.97;;;;;;;;;;700654;201;919418;-69
2021/01/25 02:43:06;;;;;;;14.83;10.10;;;;;;;;;;694988;197;919271;-69
2021/01/25 02:45:32;;;;;;;17.40;10.77;;;;;;;;;;696527;201;919027;-69
2021/01/25 02:47:58;;;;;;;13.50;8.13;;;;;;;;;;694464;198;918607;-68
2021/01/25 02:50:24;;;;;;;14.33;8.57;;;;;;;;;;699784;201;920102;-69
2021/01/25 02:52:50;;;;;;;19.70;8.17;;;;;;;;;;692243;201;919372;-68
2021/01/25 02:55:15;;;;;;;14.03;7.77;;;;;;;;;;692751;201;918416;-69
2021/01/25 02:57:41;;;;;;;12.48;7.87;;;;;;;;;;699466;201;919313;-69
2021/01/25 03:00:08;;;;;;;17.10;7.43;;;;;;;;;;687712;198;1846575;-68
2021/01/25 03:02:33;;;;;;;13.47;8.27;;;;;;;;;;696417;201;918132;-68
2021/01/25 03:05:00;;;;;;;12.60;8.33;;;;;;;;;;698771;197;931417;-69
2021/01/25 03:07:25;;;;;;;13.43;9.17;;;;;;;;;;696143;201;918659;-69
2021/01/25 03:09:51;;;;;;;13.20;8.43;;;;;;;;;;693744;197;919305;-68
2021/01/25 03:12:17;;;;;;;12.03;7.73;;;;;;;;;;697610;201;919429;-68
2021/01/25 03:14:44;;;;;;;11.33;8.00;;;;;;;;;;692077;201;919481;-69
2021/01/25 03:17:09;;;;;;;13.63;8.13;;;;;;;;;;695715;201;919729;-69
2021/01/25 03:19:35;;;;;;;12.83;8.00;;;;;;;;;;691221;200;1543150;-68
2021/01/25 03:22:01;;;;;;;13.53;8.77;;;;;;;;;;701812;200;918324;-68
2021/01/25 03:24:27;;;;;;;11.37;7.47;;;;;;;;;;693287;200;919429;-68
2021/01/25 03:26:53;;;;;;;18.27;7.93;;;;;;;;;;697102;200;919122;-69
2021/01/25 03:29:19;;;;;;;12.50;7.30;;;;;;;;;;698811;200;918857;-68
2021/01/25 03:31:44;;;;;;;12.93;7.57;;;;;;;;;;696359;200;919495;-68
2021/01/25 03:34:10;;;;;;;16.53;8.43;;;;;;;;;;696989;200;944003;-69
2021/01/25 03:36:36;;;;;;;15.90;9.30;;;;;;;;;;699211;200;859114;-68
2021/01/25 03:39:02;;;;;;;12.47;8.83;;;;;;;;;;696140;201;919270;-68
2021/01/25 03:41:28;;;;;;;13.90;8.35;;;;;;;;;;696552;200;919207;-69
2021/01/25 03:43:55;;;;;;;11.85;8.10;;;;;;;;;;702505;201;918524;-68
2021/01/25 03:46:20;;;;;;;15.03;7.73;;;;;;;;;;697265;197;918645;-69
2021/01/25 03:48:46;;;;;;;13.57;8.17;;;;;;;;;;695708;201;919504;-69
2021/01/25 03:51:12;;;;;;;13.37;8.83;;;;;;;;;;693411;197;918750;-69
2021/01/25 03:53:38;;;;;;;13.83;9.20;;;;;;;;;;701444;201;918848;-68
2021/01/25 03:56:04;;;;;;;13.10;9.07;;;;;;;;;;694145;197;918895;-69
2021/01/25 03:58:30;;;;;;;12.83;7.80;;;;;;;;;;696173;201;919325;-69
2021/01/25 04:00:56;;;;;;;12.97;8.80;;;;;;;;;;697985;201;920365;-69
2021/01/25 04:03:22;;;;;;;16.60;9.57;;;;;;;;;;692544;201;919406;-69
2021/01/25 04:05:47;;;;;;;15.85;9.43;;;;;;;;;;692602;198;1019324;-68
2021/01/25 04:08:13;;;;;;;12.23;7.90;;;;;;;;;;703543;201;918782;-69
2021/01/25 04:10:41;;;;;;;13.10;9.23;;;;;;;;;;694028;199;919074;-68
2021/01/25 04:13:06;;;;;;;17.23;10.37;;;;;;;;;;693985;199;915184;-69
2021/01/25 04:15:32;;;;;;;18.95;10.77;;;;;;;;;;695641;201;915909;-68
2021/01/25 04:17:58;;;;;;;13.40;9.60;;;;;;;;;;697304;198;919789;-69
2021/01/25 04:20:24;;;;;;;14.07;9.63;;;;;;;;;;696155;201;919883;-69
2021/01/25 04:22:50;;;;;;;16.17;9.37;;;;;;;;;;693342;201;919287;-69
2021/01/25 04:25:16;;;;;;;13.57;9.43;;;;;;;;;;700185;201;919536;-69
2021/01/25 04:27:42;;;;;;;16.57;10.57;;;;;;;;;;687898;201;1730849;-69
2021/01/25 04:30:08;;;;;;;17.67;9.77;;;;;;;;;;691420;200;1021904;-69
2021/01/25 04:32:35;;;;;;;16.93;10.30;;;;;;;;;;696030;200;919048;-69
2021/01/25 04:35:00;;;;;;;16.20;10.70;;;;;;;;;;696424;200;918424;-69
2021/01/25 04:37:25;;;;;;;19.83;12.03;;;;;;;;;;694005;200;919577;-68
2021/01/25 04:39:51;;;;;;;18.10;10.77;;;;;;;;;;694568;201;919150;-69
2021/01/25 04:42:17;;;;;;;16.67;11.10;;;;;;;;;;700822;199;914238;-69
2021/01/25 04:44:43;;;;;;;15.17;10.20;;;;;;;;;;695032;200;930691;-68
2021/01/25 04:47:10;;;;;;;19.42;11.32;;;;;;;;;;690884;198;1569062;-69
2021/01/25 04:49:36;;;;;;;20.60;10.90;;;;;;;;;;704529;200;931113;-69
2021/01/25 04:52:02;;;;;;;19.70;11.87;;;;;;;;;;695542;201;920375;-69
2021/01/25 04:54:28;;;;;;;16.45;11.35;;;;;;;;;;693063;197;1021468;-69
2021/01/25 04:56:54;;;;;;;16.13;11.70;;;;;;;;;;701191;201;918423;-69
2021/01/25 04:59:20;;;;;;;15.90;9.37;;;;;;;;;;694031;198;919435;-69
2021/01/25 05:01:45;;;;;;;15.73;9.70;;;;;;;;;;696904;201;919856;-69
2021/01/25 05:04:11;;;;;;;14.40;10.17;;;;;;;;;;693151;198;920026;-66
2021/01/25 05:06:37;;;;;;;14.53;9.73;;;;;;;;;;698913;201;918554;-69
2021/01/25 05:09:03;;;;;;;14.33;9.10;;;;;;;;;;689281;201;1021320;-69
2021/01/25 05:11:29;;;;;;;13.97;9.47;;;;;;;;;;699443;201;818027;-69
2021/01/25 05:14:01;;;;;;;14.90;9.60;;;;;;;;;;699154;201;920376;-69
2021/01/25 05:16:27;;;;;;;15.67;9.20;;;;;;;;;;695532;201;918960;-69
2021/01/25 05:18:54;;;;;;;15.80;10.20;;;;;;;;;;693293;201;918414;-69
2021/01/25 05:21:35;;;;;;;14.53;8.97;;;;;;;;;;694013;201;920743;-68
2021/01/25 05:24:04;;;;;;;18.27;11.20;;;;;;;;;;695403;198;914109;-68
2021/01/25 05:26:29;;;;;;;19.73;13.90;;;;;;;;;;703816;201;917084;-69
2021/01/25 05:28:55;;;;;;;34.30;17.33;;;;;;;;;;693484;201;919414;-70
2021/01/25 05:31:21;;;;;;;27.77;11.93;;;;;;;;;;694181;201;926131;-68
2021/01/25 05:33:47;;;;;;;20.33;12.93;;;;;;;;;;697343;201;921952;-69
2021/01/25 05:36:13;;;;;;;17.00;11.10;;;;;;;;;;692888;197;920684;-69
2021/01/25 05:38:39;;;;;;;26.45;14.45;;;;;;;;;;695131;201;919212;-68
2021/01/25 05:41:05;;;;;;;26.00;13.33;;;;;;;;;;698985;197;918668;-68
2021/01/25 05:43:30;;;;;;;33.50;16.97;;;;;;;;;;698856;199;920775;-69
2021/01/25 05:45:56;;;;;;;34.07;18.50;;;;;;;;;;692179;197;919327;-69
2021/01/25 05:48:22;;;;;;;77.23;38.10;;;;;;;;;;699757;200;918787;-69
2021/01/25 05:50:48;;;;;;;70.60;37.27;;;;;;;;;;693707;200;919461;-69
2021/01/25 05:53:14;;;;;;;71.23;40.40;;;;;;;;;;695995;200;918078;-69
2021/01/25 05:55:40;;;;;;;59.90;33.40;;;;;;;;;;685456;200;2664436;-69
2021/01/25 05:58:06;;;;;;;34.30;18.47;;;;;;;;;;702384;200;919170;-69
2021/01/25 06:00:31;;;;;;;35.27;20.97;;;;;;;;;;693563;200;943508;-69
2021/01/25 06:02:57;;;;;;;45.73;24.00;;;;;;;;;;695394;200;919702;-69
2021/01/25 06:05:24;;;;;;;35.43;20.30;;;;;;;;;;698547;200;918975;-68
2021/01/25 06:07:50;;;;;;;34.10;18.70;;;;;;;;;;699980;201;719470;-69
2021/01/25 06:10:17;;;;;;;27.57;15.30;;;;;;;;;;694831;201;919394;-68
2021/01/25 06:12:43;;;;;;;23.07;15.23;;;;;;;;;;698264;201;916107;-69
2021/01/25 06:15:09;;;;;;;19.27;14.10;;;;;;;;;;693877;201;918812;-69
2021/01/25 06:17:35;;;;;;;21.83;11.60;;;;;;;;;;689838;200;1456137;-69
2021/01/25 06:20:01;;;;;;;16.10;10.00;;;;;;;;;;694345;201;967366;-69
2021/01/25 06:22:27;;;;;;;22.70;12.17;;;;;;;;;;697016;198;918845;-69
2021/01/25 06:24:53;;;;;;;24.03;12.73;;;;;;;;;;694558;201;917571;-69
2021/01/25 06:27:19;;;;;;;23.93;15.50;;;;;;;;;;692995;198;919659;-69
2021/01/25 06:29:45;;;;;;;21.70;13.30;;;;;;;;;;700710;201;919001;-70
2021/01/25 06:32:10;;;;;;;19.67;13.57;;;;;;;;;;693628;198;918094;-69
2021/01/25 06:34:36;;;;;;;23.17;14.63;;;;;;;;;;695218;201;919355;-69
2021/01/25 06:37:02;;;;;;;22.00;13.90;;;;;;;;;;696577;201;919056;-69
2021/01/25 06:39:28;;;;;;;23.53;14.53;;;;;;;;;;692267;201;1020469;-69
2021/01/25 06:41:59;;;;;;;18.53;13.60;;;;;;;;;;691845;197;919110;-69
2021/01/25 06:44:25;;;;;;;23.23;12.97;;;;;;;;;;694973;201;919607;-70
2021/01/25 06:46:50;;;;;;;21.40;13.93;;;;;;;;;;697136;197;918816;-69
2021/01/25 06:49:16;;;;;;;19.17;12.27;;;;;;;;;;693732;201;919108;-70
2021/01/25 06:51:42;;;;;;;21.08;13.40;;;;;;;;;;695160;201;919571;-69
2021/01/25 06:54:08;;;;;;;20.10;13.70;;;;;;;;;;699645;197;622654;-69
2021/01/25 06:56:40;;;;;;;41.83;20.97;;;;;;;;;;701909;200;634168;-70
2021/01/25 06:59:06;;;;;;;38.50;20.53;;;;;;;;;;699431;200;630119;-69
2021/01/25 07:01:32;;;;;;;41.83;21.20;;;;;;;;;;699768;200;633303;-69
2021/01/25 07:03:57;;;;;;;43.28;21.65;;;;;;;;;;696959;200;971444;-69
2021/01/25 07:06:38;;;;;;;42.90;21.37;;;;;;;;;;698596;200;631210;-69
2021/01/25 07:09:04;;;;;;;48.33;20.70;;;;;;;;;;696795;200;636389;-69
2021/01/25 07:11:30;;;;;;;35.43;19.30;;;;;;;;;;699168;200;625393;-69
2021/01/25 07:13:56;;;;;;;32.83;17.87;;;;;;;;;;697832;201;919008;-69
2021/01/25 07:16:23;;;;;;;28.90;16.30;;;;;;;;;;695019;200;918979;-69
2021/01/25 07:18:49;;;;;;;32.43;17.47;;;;;;;;;;694854;201;919920;-70
2021/01/25 07:21:15;;;;;;;34.10;18.20;;;;;;;;;;700930;201;920119;-68
2021/01/25 07:23:41;;;;;;;33.33;19.83;;;;;;;;;;699982;198;919643;-69
2021/01/25 07:26:06;;;;;;;29.90;17.90;;;;;;;;;;698007;201;920445;-69
2021/01/25 07:28:32;;;;;;;36.37;20.30;;;;;;;;;;691753;198;929669;-70
2021/01/25 07:30:58;;;;;;;41.13;23.80;;;;;;;;;;698912;201;918304;-69
2021/01/25 07:33:24;;;;;;;41.33;22.00;;;;;;;;;;693812;201;916107;-69
2021/01/25 07:35:50;;;;;;;40.70;21.20;;;;;;;;;;691787;201;915789;-69
2021/01/25 07:38:16;;;;;;;32.10;18.70;;;;;;;;;;697853;201;918814;-69
2021/01/25 07:40:44;;;;;;;29.40;18.13;;;;;;;;;;692756;199;920215;-69
2021/01/25 07:43:09;;;;;;;28.67;17.87;;;;;;;;;;695045;201;919948;-69
2021/01/25 07:45:35;;;;;;;28.52;16.30;;;;;;;;;;697320;201;919155;-70
2021/01/25 07:48:01;;;;;;;29.93;15.10;;;;;;;;;;695912;201;919283;-70
2021/01/25 07:50:27;;;;;;;26.73;18.55;;;;;;;;;;693243;197;938287;-69
2021/01/25 07:52:57;;;;;;;33.17;18.60;;;;;;;;;;694692;201;951256;-69
2021/01/25 07:55:22;;;;;;;31.95;20.23;;;;;;;;;;696966;197;919135;-69
2021/01/25 07:57:48;;;;;;;42.53;22.20;;;;;;;;;;694359;201;1023271;-70
2021/01/25 08:00:17;;;;;;;60.13;33.53;;;;;;;;;;692931;198;921967;-70
2021/01/25 08:02:43;;;;;;;49.67;26.60;;;;;;;;;;699396;201;922201;-70
2021/01/25 08:05:11;;;;;;;32.90;20.70;;;;;;;;;;696094;200;924559;-71
2021/01/25 08:07:36;;;;;;;34.70;19.67;;;;;;;;;;696922;200;919174;-70
2021/01/25 08:10:03;;;;;;;41.63;22.47;;;;;;;;;;694427;200;917905;-71
2021/01/25 08:12:30;;;;;;;42.37;24.87;;;;;;;;;;701128;200;919957;-71
2021/01/25 08:15:00;;;;;;;35.70;21.70;;;;;;;;;;697138;200;920637;-71
2021/01/25 08:17:21;;;;;;;33.27;18.87;;;;;;;;;;694768;200;918648;-70
2021/01/25 08:19:57;;;;;;;31.90;19.70;;;;;;;;;;700382;200;918204;-70
2021/01/25 08:22:22;;;;;;;25.27;17.30;;;;;;;;;;699458;200;915894;-71
2021/01/25 08:24:52;;;;;;;35.87;19.70;;;;;;;;;;694127;200;919951;-71
2021/01/25 08:27:18;;;;;;;38.43;22.00;;;;;;;;;;692204;200;940369;-70
2021/01/25 08:29:44;;;;;;;31.47;20.30;;;;;;;;;;700307;200;998529;-70
2021/01/25 08:32:11;;;;;;;32.13;20.03;;;;;;;;;;691776;199;1346751;-71
2021/01/25 08:34:37;;;;;;;30.07;18.13;;;;;;;;;;694972;201;919682;-71
2021/01/25 08:37:05;;;;;;;29.53;19.90;;;;;;;;;;692507;197;918697;-71
2021/01/25 08:39:29;;;;;;;32.33;19.60;;;;;;;;;;698025;200;917950;-72
2021/01/25 08:41:57;;;;;;;27.03;19.43;;;;;;;;;;692856;197;919375;-71
2021/01/25 08:44:21;;;;;;;31.00;19.67;;;;;;;;;;694290;201;918871;-71
2021/01/25 08:46:47;;;;;;;34.77;19.13;;;;;;;;;;697614;197;919058;-72
2021/01/25 08:49:28;;;;;;;30.60;19.90;;;;;;;;;;696107;201;918876;-72
2021/01/25 08:51:55;;;;;;;31.30;19.23;;;;;;;;;;694301;201;923547;-71
2021/01/25 08:54:21;;;;;;;35.00;16.47;;;;;;;;;;695336;201;919177;-71
2021/01/25 08:56:49;;;;;;;22.57;16.40;;;;;;;;;;696874;201;919053;-71
2021/01/25 08:59:15;;;;;;;27.67;17.13;;;;;;;;;;695948;201;1044172;-72
2021/01/25 09:01:40;;;;;;;26.40;17.47;;;;;;;;;;696300;201;918711;-72
2021/01/25 09:04:06;;;;;;;29.58;16.50;;;;;;;;;;693309;201;918065;-71
2021/01/25 09:06:32;;;;;;;24.70;14.40;;;;;;;;;;700235;201;968442;-72
2021/01/25 09:08:58;;;;;;;31.07;17.43;;;;;;;;;;692106;201;918701;-72
2021/01/25 09:11:24;;;;;;;26.03;17.23;;;;;;;;;;695200;201;918788;-72
2021/01/25 09:13:50;;;;;;;28.80;15.10;;;;;;;;;;697175;201;920753;-72
2021/01/25 09:16:15;;;;;;;23.63;15.30;;;;;;;;;;698695;198;628803;-72
2021/01/25 09:18:41;;;;;;;28.50;14.93;;;;;;;;;;697478;197;723807;-72
2021/01/25 09:21:07;;;;;;;22.30;14.33;;;;;;;;;;704883;200;636342;-72
2021/01/25 09:23:33;;;;;;;28.20;15.07;;;;;;;;;;699224;197;617335;-72
2021/01/25 09:25:59;;;;;;;33.50;16.27;;;;;;;;;;701522;200;629616;-72
2021/01/25 09:28:25;;;;;;;28.50;16.40;;;;;;;;;;700977;197;623315;-72
2021/01/25 09:30:51;;;;;;;26.05;16.12;;;;;;;;;;698508;200;919690;-71
2021/01/25 09:33:16;;;;;;;22.70;15.67;;;;;;;;;;692760;200;919266;-71
2021/01/25 09:35:42;;;;;;;30.30;17.10;;;;;;;;;;694986;201;920193;-71
2021/01/25 09:38:08;;;;;;;26.47;16.70;;;;;;;;;;701206;200;877509;-71
2021/01/25 09:40:34;;;;;;;26.90;16.30;;;;;;;;;;692605;197;918829;-70
2021/01/25 09:43:00;;;;;;;24.27;15.80;;;;;;;;;;694136;201;915282;-70
2021/01/25 09:45:26;;;;;;;33.83;19.63;;;;;;;;;;698996;197;916801;-70
2021/01/25 09:47:52;;;;;;;34.97;20.90;;;;;;;;;;698512;200;916255;-69
2021/01/25 09:50:18;;;;;;;43.30;24.70;;;;;;;;;;692983;197;1018412;-68
2021/01/25 09:52:44;;;;;;;34.13;18.55;;;;;;;;;;699068;201;919645;-69
2021/01/25 09:55:10;;;;;;;34.93;19.97;;;;;;;;;;694611;197;920016;-69
2021/01/25 09:57:36;;;;;;;37.87;23.67;;;;;;;;;;695624;201;920096;-69
2021/01/25 10:00:02;;;;;;;38.17;22.83;;;;;;;;;;687801;200;1443425;-69
2021/01/25 10:02:28;;;;;;;31.00;19.63;;;;;;;;;;702775;201;616142;-68
2021/01/25 10:04:54;;;;;;;37.90;22.37;;;;;;;;;;693242;201;919315;-69
2021/01/25 10:07:19;;;;;;;28.43;20.90;;;;;;;;;;691928;201;919363;-69
2021/01/25 10:09:45;;;;;;;32.37;20.90;;;;;;;;;;698403;201;1021711;-69
2021/01/25 10:12:11;;;;;;;31.20;20.47;;;;;;;;;;692263;201;1670231;-69
2021/01/25 10:14:37;;;;;;;34.43;18.63;;;;;;;;;;695651;201;919892;-69
2021/01/25 10:17:03;;;;;;;30.50;21.13;;;;;;;;;;699098;201;917905;-69
2021/01/25 10:19:29;;;;;;;30.27;19.70;;;;;;;;;;696132;201;919520;-69
2021/01/25 10:21:56;;;;;;;31.13;20.60;;;;;;;;;;694292;201;919229;-69
2021/01/25 10:24:22;;;;;;;43.72;25.67;;;;;;;;;;696854;201;919514;-67
2021/01/25 10:26:47;;;;;;;60.33;32.87;;;;;;;;;;698001;198;1021384;-68
2021/01/25 10:29:13;;;;;;;38.53;20.90;;;;;;;;;;696542;198;919102;-68
2021/01/25 10:31:39;;;;;;;34.60;19.77;;;;;;;;;;694582;197;924739;-68
2021/01/25 10:34:05;;;;;;;31.20;19.80;;;;;;;;;;702029;200;919235;-68
2021/01/25 10:36:31;;;;;;;28.03;18.33;;;;;;;;;;693793;197;919464;-67
2021/01/25 10:38:57;;;;;;;30.13;17.10;;;;;;;;;;694364;200;918614;-67
2021/01/25 10:41:24;;;;;;;25.37;16.97;;;;;;;;;;698874;200;918344;-67
2021/01/25 10:43:48;;;;;;;26.10;15.90;;;;;;;;;;696728;200;912130;-68
2021/01/25 10:46:15;;;;;;;30.45;16.27;;;;;;;;;;688932;198;1533720;-67
2021/01/25 10:48:40;;;;;;;25.27;15.90;;;;;;;;;;700671;200;919554;-68
2021/01/25 10:51:09;;;;;;;36.57;18.07;;;;;;;;;;696816;201;918158;-68
2021/01/25 10:53:35;;;;;;;26.27;17.60;;;;;;;;;;698010;200;919343;-67
2021/01/25 10:56:01;;;;;;;32.23;18.10;;;;;;;;;;697506;201;919167;-68
2021/01/25 10:58:26;;;;;;;25.33;16.70;;;;;;;;;;700603;197;918688;-68
2021/01/25 11:00:52;;;;;;;28.07;15.90;;;;;;;;;;697608;200;919397;-68
2021/01/25 11:03:18;;;;;;;29.30;15.67;;;;;;;;;;694464;201;922170;-69
2021/01/25 11:05:44;;;;;;;21.50;13.67;;;;;;;;;;699762;201;918479;-69
2021/01/25 11:08:10;;;;;;;19.60;12.90;;;;;;;;;;692122;201;1320470;-69
2021/01/25 11:10:36;;;;;;;20.73;14.07;;;;;;;;;;696346;201;919210;-70
2021/01/25 11:13:02;;;;;;;25.50;16.70;;;;;;;;;;697685;201;919832;-70
2021/01/25 11:15:27;;;;;;;21.67;14.25;;;;;;;;;;694809;201;919537;-70
2021/01/25 11:17:54;;;;;;;21.80;12.43;;;;;;;;;;693643;201;919185;-70
2021/01/25 11:20:19;;;;;;;24.77;13.77;;;;;;;;;;695535;201;918226;-70
2021/01/25 11:22:45;;;;;;;24.23;15.37;;;;;;;;;;697594;198;919456;-71
2021/01/25 11:25:11;;;;;;;31.23;16.47;;;;;;;;;;694591;201;1024444;-70
2021/01/25 11:27:38;;;;;;;22.67;14.23;;;;;;;;;;688041;201;2094696;-70
2021/01/25 11:30:06;;;;;;;22.23;14.20;;;;;;;;;;698901;201;918968;-70
2021/01/25 11:32:32;;;;;;;21.00;13.27;;;;;;;;;;693924;201;919119;-70
2021/01/25 11:34:58;;;;;;;23.40;14.20;;;;;;;;;;692076;197;966664;-71
2021/01/25 11:37:23;;;;;;;22.50;14.50;;;;;;;;;;700311;201;919019;-71
2021/01/25 11:39:49;;;;;;;20.10;13.17;;;;;;;;;;692229;197;917525;-71
2021/01/25 11:42:15;;;;;;;22.83;15.60;;;;;;;;;;698144;200;919176;-71
2021/01/25 11:44:41;;;;;;;27.20;15.97;;;;;;;;;;695203;197;919572;-69
2021/01/25 11:47:07;;;;;;;25.20;15.90;;;;;;;;;;703730;200;624974;-72
2021/01/25 11:49:33;;;;;;;28.00;18.50;;;;;;;;;;692567;200;923369;-71
2021/01/25 11:51:58;;;;;;;26.10;17.00;;;;;;;;;;693639;201;919196;-71
2021/01/25 11:54:24;;;;;;;27.93;16.43;;;;;;;;;;693298;200;1812822;-71
2021/01/25 11:56:50;;;;;;;29.67;17.20;;;;;;;;;;694948;200;919333;-71
2021/01/25 11:59:16;;;;;;;35.73;18.67;;;;;;;;;;693623;200;922863;-70
2021/01/25 12:01:42;;;;;;;28.03;18.13;;;;;;;;;;700707;201;918768;-70
2021/01/25 12:04:08;;;;;;;24.27;16.33;;;;;;;;;;694353;200;988727;-70
2021/01/25 12:06:34;;;;;;;25.62;16.05;;;;;;;;;;696521;200;1119471;-70
2021/01/25 12:09:00;;;;;;;26.02;15.65;;;;;;;;;;699801;201;914818;-69
2021/01/25 12:11:26;;;;;;;23.37;14.10;;;;;;;;;;699514;199;918456;-70
2021/01/25 12:13:52;;;;;;;22.10;14.70;;;;;;;;;;697368;201;910112;-71
2021/01/25 12:16:18;;;;;;;17.37;12.63;;;;;;;;;;692262;199;1179785;-71
2021/01/25 12:18:44;;;;;;;20.80;13.73;;;;;;;;;;699101;201;921101;-71
2021/01/25 12:21:10;;;;;;;18.07;12.57;;;;;;;;;;691920;199;919128;-70
2021/01/25 12:23:36;;;;;;;16.23;12.80;;;;;;;;;;693011;201;919396;-71
2021/01/25 12:26:01;;;;;;;18.23;12.60;;;;;;;;;;697886;199;918071;-72
2021/01/25 12:28:27;;;;;;;24.20;13.17;;;;;;;;;;696361;201;924327;-73
2021/01/25 12:30:53;;;;;;;20.85;13.68;;;;;;;;;;694479;201;918650;-73
2021/01/25 12:33:19;;;;;;;18.50;13.00;;;;;;;;;;699882;201;918459;-74
2021/01/25 12:35:45;;;;;;;20.97;13.70;;;;;;;;;;699013;197;918248;-74
2021/01/25 12:38:11;;;;;;;26.40;14.35;;;;;;;;;;698782;201;919807;-76
2021/01/25 12:40:37;;;;;;;28.80;16.10;;;;;;;;;;693618;198;935729;-75
2021/01/25 12:43:03;;;;;;;24.53;15.03;;;;;;;;;;703228;201;919885;-76
2021/01/25 12:45:29;;;;;;;20.10;14.15;;;;;;;;;;696971;201;918406;-75
2021/01/25 12:47:55;;;;;;;22.07;15.43;;;;;;;;;;693851;198;918395;-76
2021/01/25 12:50:20;;;;;;;21.23;15.27;;;;;;;;;;701671;201;918347;-75
2021/01/25 12:52:46;;;;;;;21.53;14.67;;;;;;;;;;695460;198;918802;-77
2021/01/25 12:55:12;;;;;;;20.73;14.50;;;;;;;;;;699109;200;918807;-77
2021/01/25 12:57:39;;;;;;;24.33;13.67;;;;;;;;;;701757;200;631079;-77
2021/01/25 13:00:05;;;;;;;21.57;15.13;;;;;;;;;;700468;200;620288;-77
2021/01/25 13:02:31;;;;;;;22.00;15.00;;;;;;;;;;695818;200;815481;-76
2021/01/25 13:04:57;;;;;;;23.17;14.52;;;;;;;;;;698742;200;918717;-77
2021/01/25 13:07:23;;;;;;;23.13;15.10;;;;;;;;;;701570;201;710025;-77
2021/01/25 13:09:49;;;;;;;21.52;15.38;;;;;;;;;;696777;200;919627;-77
2021/01/25 13:12:14;;;;;;;26.57;16.53;;;;;;;;;;695470;200;816266;-76
2021/01/25 13:14:40;;;;;;;28.23;15.00;;;;;;;;;;702606;201;744901;-77
2021/01/25 13:17:06;;;;;;;26.13;14.90;;;;;;;;;;697862;201;815697;-76
2021/01/25 13:19:32;;;;;;;23.57;15.80;;;;;;;;;;695670;201;993187;-78
2021/01/25 13:22:00;;;;;;;23.20;15.47;;;;;;;;;;698350;197;1019177;-77
2021/01/25 13:24:26;;;;;;;21.10;15.00;;;;;;;;;;693049;197;1209315;-77
2021/01/25 13:26:52;;;;;;;24.50;15.00;;;;;;;;;;694488;201;1020855;-77
2021/01/25 13:29:18;;;;;;;22.80;16.60;;;;;;;;;;692174;197;1009873;-77
2021/01/25 13:31:44;;;;;;;24.93;15.80;;;;;;;;;;700127;201;1021366;-77
2021/01/25 13:34:10;;;;;;;25.73;16.77;;;;;;;;;;690992;198;1120811;-78
2021/01/25 13:36:36;;;;;;;24.55;15.25;;;;;;;;;;695262;201;908821;-77
2021/01/25 13:39:02;;;;;;;24.67;16.03;;;;;;;;;;698943;201;902424;-76
2021/01/25 13:41:27;;;;;;;30.63;17.37;;;;;;;;;;696330;201;920660;-77
2021/01/25 13:43:53;;;;;;;25.33;15.20;;;;;;;;;;683760;198;3029238;-77
2021/01/25 13:46:20;;;;;;;25.37;15.93;;;;;;;;;;700163;201;916862;-77
2021/01/25 13:48:45;;;;;;;33.40;17.47;;;;;;;;;;692832;198;1009180;-77
2021/01/25 13:51:11;;;;;;;30.83;19.80;;;;;;;;;;695609;201;1020730;-76
2021/01/25 13:53:38;;;;;;;36.50;20.67;;;;;;;;;;697281;198;974818;-75
2021/01/25 13:56:04;;;;;;;34.47;19.90;;;;;;;;;;701483;201;1017971;-77
2021/01/25 13:58:30;;;;;;;34.67;20.20;;;;;;;;;;692130;198;1013527;-76